Time;durP1;ratioP1;P1;durP2;ratioP2;P2;SDS_P1;SDS_P2;PMS_P1;PMS_P2;Temp;Humidity;BMP_temperature;BMP_pressure;BME280_temperature;BME280_humidity;BME280_pressure;Samples;Min_cycle;Max_cycle;Signal;HPM_P1;HPM_P2
2022/04/25 00:00:50;;;;;;;9.00;6.15;;;;;;;;;;4955663;29;20078;-89
2022/04/25 00:03:15;;;;;;;9.45;6.05;;;;;;;;;;4921846;29;20043;-88
2022/04/25 00:05:40;;;;;;;7.78;6.00;;;;;;;;;;4954238;28;20106;-88
2022/04/25 00:08:06;;;;;;;9.48;5.90;;;;;;;;;;4942846;29;20026;-90
2022/04/25 00:10:32;;;;;;;7.53;5.47;;;;;;;;;;4955679;29;20023;-88
2022/04/25 00:12:57;;;;;;;9.82;6.50;;;;;;;;;;4938092;29;20050;-88
2022/04/25 00:15:23;;;;;;;8.93;6.57;;;;;;;;;;4955410;28;20054;-88
2022/04/25 00:17:48;;;;;;;8.68;6.35;;;;;;;;;;4938166;29;20019;-89
2022/04/25 00:20:13;;;;;;;9.50;6.22;;;;;;;;;;4954201;28;20030;-89
2022/04/25 00:22:40;;;;;;;9.52;6.50;;;;;;;;;;4937732;29;20026;-89
2022/04/25 00:25:05;;;;;;;11.77;6.93;;;;;;;;;;4938141;29;20031;-91
2022/04/25 00:27:30;;;;;;;10.20;6.35;;;;;;;;;;4938132;29;20106;-90
2022/04/25 00:29:56;;;;;;;10.32;6.68;;;;;;;;;;4955545;29;20015;-89
2022/04/25 00:32:21;;;;;;;9.48;6.35;;;;;;;;;;4954995;28;20019;-88
2022/04/25 00:34:46;;;;;;;9.95;7.13;;;;;;;;;;4954901;28;20024;-89
2022/04/25 00:37:12;;;;;;;11.70;6.40;;;;;;;;;;4937754;29;20121;-89
2022/04/25 00:39:37;;;;;;;10.15;7.47;;;;;;;;;;4953559;28;20094;-90
2022/04/25 00:42:02;;;;;;;10.07;7.18;;;;;;;;;;4954753;28;20086;-89
2022/04/25 00:44:28;;;;;;;9.10;6.53;;;;;;;;;;4937657;29;20015;-90
2022/04/25 00:46:54;;;;;;;9.98;6.90;;;;;;;;;;4954928;28;20055;-89
2022/04/25 00:49:20;;;;;;;9.25;6.45;;;;;;;;;;4939403;29;20025;-90
2022/04/25 00:51:46;;;;;;;10.45;6.70;;;;;;;;;;4955101;29;20090;-88
2022/04/25 00:54:12;;;;;;;10.45;6.40;;;;;;;;;;4938840;28;20053;-89
2022/04/25 00:56:37;;;;;;;10.00;7.10;;;;;;;;;;4942204;29;20483;-90
2022/04/25 00:59:03;;;;;;;10.93;7.13;;;;;;;;;;4936895;29;20471;-89
2022/04/25 01:01:29;;;;;;;10.88;7.22;;;;;;;;;;4937745;29;20020;-89
2022/04/25 01:03:54;;;;;;;10.85;6.80;;;;;;;;;;4937352;28;20498;-90
2022/04/25 01:06:20;;;;;;;9.38;6.35;;;;;;;;;;4937472;29;20135;-91
2022/04/25 01:08:45;;;;;;;9.80;6.93;;;;;;;;;;4953876;28;20026;-89
2022/04/25 01:11:12;;;;;;;11.13;8.35;;;;;;;;;;4937383;29;20020;-92
2022/04/25 01:13:37;;;;;;;11.52;7.45;;;;;;;;;;4954708;28;20019;-91
2022/04/25 01:16:03;;;;;;;12.40;7.95;;;;;;;;;;4937528;28;20118;-90
2022/04/25 01:18:28;;;;;;;13.00;6.88;;;;;;;;;;4954994;29;20077;-90
2022/04/25 01:20:55;;;;;;;11.23;7.13;;;;;;;;;;4937697;29;20031;-90
2022/04/25 01:28:51;;;;;;;14.10;7.88;;;;;;;;;;4956171;28;20026;-90
2022/04/25 01:31:16;;;;;;;13.65;7.97;;;;;;;;;;4939460;29;20015;-89
2022/04/25 01:33:42;;;;;;;12.52;7.78;;;;;;;;;;4940412;29;20030;-89
2022/04/25 01:36:07;;;;;;;12.45;7.90;;;;;;;;;;4939735;29;20508;-88
2022/04/25 01:38:33;;;;;;;12.65;7.40;;;;;;;;;;4957774;29;20482;-87
2022/04/25 01:40:58;;;;;;;14.10;8.63;;;;;;;;;;4939038;29;20026;-90
2022/04/25 01:43:23;;;;;;;11.30;7.30;;;;;;;;;;4937157;29;20479;-90
2022/04/25 01:45:49;;;;;;;14.25;7.65;;;;;;;;;;4955527;28;20024;-89
2022/04/25 01:48:14;;;;;;;12.93;7.28;;;;;;;;;;4953884;28;20019;-89
2022/04/25 01:50:39;;;;;;;13.07;7.95;;;;;;;;;;4936638;29;20028;-89
2022/04/25 01:53:05;;;;;;;14.13;7.38;;;;;;;;;;4936579;29;20027;-90
2022/04/25 01:55:30;;;;;;;11.43;7.07;;;;;;;;;;4936792;29;20094;-90
2022/04/25 01:57:55;;;;;;;13.63;7.35;;;;;;;;;;4953799;28;20102;-90
2022/04/25 02:00:21;;;;;;;14.20;8.13;;;;;;;;;;4932372;29;20411;-88
2022/04/25 02:02:46;;;;;;;13.30;7.68;;;;;;;;;;4941574;29;20027;-90
2022/04/25 02:05:11;;;;;;;11.32;7.35;;;;;;;;;;4952618;29;20143;-90
2022/04/25 02:07:37;;;;;;;13.63;7.82;;;;;;;;;;4936745;29;20107;-88
2022/04/25 02:10:02;;;;;;;14.10;7.78;;;;;;;;;;4954042;28;20022;-91
2022/04/25 02:12:28;;;;;;;15.32;7.93;;;;;;;;;;4940220;29;20038;-89
2022/04/25 02:14:53;;;;;;;19.05;7.78;;;;;;;;;;4940277;28;20023;-88
2022/04/25 02:17:19;;;;;;;18.80;8.05;;;;;;;;;;4957409;28;20023;-89
2022/04/25 02:19:44;;;;;;;14.82;7.40;;;;;;;;;;4957204;29;20023;-88
2022/04/25 02:22:10;;;;;;;16.52;7.63;;;;;;;;;;4957367;29;20114;-90
2022/04/25 02:24:36;;;;;;;15.35;8.35;;;;;;;;;;4957052;29;20019;-89
2022/04/25 02:27:04;;;;;;;16.92;8.10;;;;;;;;;;4939768;29;20026;-90
2022/04/25 02:29:33;;;;;;;15.00;8.50;;;;;;;;;;4957484;28;20066;-91
2022/04/25 02:31:59;;;;;;;17.27;8.20;;;;;;;;;;4941530;29;20019;-90
2022/04/25 02:34:24;;;;;;;18.35;7.97;;;;;;;;;;4945919;29;20442;-89
2022/04/25 02:36:50;;;;;;;15.98;8.32;;;;;;;;;;4939758;29;20035;-90
2022/04/25 02:39:15;;;;;;;15.68;8.35;;;;;;;;;;4956959;28;20419;-89
2022/04/25 02:41:40;;;;;;;16.88;8.32;;;;;;;;;;4956968;29;20012;-90
2022/04/25 02:44:05;;;;;;;12.25;7.43;;;;;;;;;;4939894;29;20023;-91
2022/04/25 02:46:31;;;;;;;20.10;8.88;;;;;;;;;;4939862;29;20027;-91
2022/04/25 02:48:56;;;;;;;15.98;8.77;;;;;;;;;;4938561;29;20015;-89
2022/04/25 02:51:22;;;;;;;16.65;8.35;;;;;;;;;;4956849;29;20086;-91
2022/04/25 02:53:47;;;;;;;17.35;8.68;;;;;;;;;;4939712;29;20501;-90
2022/04/25 02:56:12;;;;;;;29.77;9.98;;;;;;;;;;4956984;28;20023;-89
2022/04/25 02:58:38;;;;;;;18.98;9.38;;;;;;;;;;4939809;29;20483;-90
2022/04/25 03:01:04;;;;;;;18.55;9.60;;;;;;;;;;4939673;29;20085;-90
2022/04/25 03:03:32;;;;;;;14.98;8.52;;;;;;;;;;4939288;29;20542;-90
2022/04/25 03:05:57;;;;;;;17.38;8.82;;;;;;;;;;4955290;28;20063;-90
2022/04/25 03:08:23;;;;;;;15.98;9.52;;;;;;;;;;4942923;29;20047;-88
2022/04/25 03:10:48;;;;;;;16.70;9.00;;;;;;;;;;4941826;29;20500;-90
2022/04/25 03:13:14;;;;;;;18.73;8.35;;;;;;;;;;4959434;28;20023;-90
2022/04/25 03:15:40;;;;;;;19.48;9.27;;;;;;;;;;4959284;29;20027;-89
2022/04/25 03:18:07;;;;;;;19.52;8.98;;;;;;;;;;4939328;29;20035;-90
2022/04/25 03:20:32;;;;;;;15.13;8.45;;;;;;;;;;4955280;29;20078;-89
2022/04/25 03:22:58;;;;;;;15.60;9.50;;;;;;;;;;4954954;28;20027;-89
2022/04/25 03:25:23;;;;;;;20.20;11.48;;;;;;;;;;4956039;29;20430;-88
2022/04/25 03:27:48;;;;;;;26.17;11.05;;;;;;;;;;4955880;28;20092;-90
2022/04/25 03:30:16;;;;;;;19.08;8.88;;;;;;;;;;4938844;29;20023;-88
2022/04/25 03:32:45;;;;;;;21.02;9.18;;;;;;;;;;4938961;29;20078;-89
2022/04/25 03:35:11;;;;;;;17.38;8.55;;;;;;;;;;4956180;29;20085;-90
2022/04/25 03:37:37;;;;;;;20.25;9.27;;;;;;;;;;4935629;29;20391;-89
2022/04/25 03:40:04;;;;;;;15.27;9.27;;;;;;;;;;4939496;29;20027;-88
2022/04/25 03:42:30;;;;;;;17.27;8.95;;;;;;;;;;4955902;29;20030;-89
2022/04/25 03:44:55;;;;;;;19.60;8.65;;;;;;;;;;4938364;29;20023;-88
2022/04/25 03:47:20;;;;;;;14.65;8.35;;;;;;;;;;4955866;28;20493;-89
2022/04/25 03:49:45;;;;;;;15.85;8.80;;;;;;;;;;4955727;29;20019;-88
2022/04/25 03:52:11;;;;;;;16.50;8.82;;;;;;;;;;4955823;28;20163;-88
2022/04/25 03:57:23;;;;;;;18.77;9.27;;;;;;;;;;4954951;28;20029;-88
2022/04/25 03:59:48;;;;;;;22.23;9.82;;;;;;;;;;4955512;28;20019;-88
2022/04/25 04:02:13;;;;;;;17.50;9.25;;;;;;;;;;4938167;29;20024;-88
2022/04/25 04:04:38;;;;;;;20.23;9.38;;;;;;;;;;4955159;29;20023;-89
2022/04/25 04:07:04;;;;;;;18.38;9.18;;;;;;;;;;4937930;28;20055;-87
2022/04/25 04:09:47;;;;;;;15.43;9.02;;;;;;;;;;4937957;29;20019;-90
2022/04/25 04:12:16;;;;;;;12.85;8.75;;;;;;;;;;4955453;29;20053;-90
2022/04/25 04:14:41;;;;;;;;;;;;;;;;;;4954887;28;20194;-89
2022/04/25 04:17:07;;;;;;;20.27;9.60;;;;;;;;;;4955119;28;19953;-89
2022/04/25 04:19:33;;;;;;;17.77;9.90;;;;;;;;;;4938261;28;20359;-90
2022/04/25 04:22:01;;;;;;;19.13;9.85;;;;;;;;;;4938590;29;20391;-92
2022/04/25 04:24:26;;;;;;;17.83;10.70;;;;;;;;;;4934623;29;20027;-91
2022/04/25 04:26:51;;;;;;;16.70;10.02;;;;;;;;;;4934506;29;20027;-90
2022/04/25 04:29:16;;;;;;;19.52;9.70;;;;;;;;;;4936716;29;20502;-91
2022/04/25 04:31:41;;;;;;;21.13;9.77;;;;;;;;;;4937761;29;20479;-90
2022/04/25 04:34:07;;;;;;;21.45;10.63;;;;;;;;;;4954742;28;20027;-89
2022/04/25 04:36:32;;;;;;;21.42;10.48;;;;;;;;;;4954866;28;20382;-90
2022/04/25 04:38:57;;;;;;;18.92;9.85;;;;;;;;;;4955233;29;20092;-90
2022/04/25 04:41:22;;;;;;;18.63;9.85;;;;;;;;;;4937975;29;20469;-91
2022/04/25 04:43:48;;;;;;;18.88;9.73;;;;;;;;;;4953043;28;20023;-89
2022/04/25 04:46:13;;;;;;;16.98;9.80;;;;;;;;;;4954708;28;20023;-91
2022/04/25 04:48:38;;;;;;;19.08;9.63;;;;;;;;;;4934880;29;20447;-91
2022/04/25 04:51:03;;;;;;;18.77;9.13;;;;;;;;;;4935613;28;20026;-90
2022/04/25 04:53:29;;;;;;;17.98;9.60;;;;;;;;;;4954696;29;20054;-89
2022/04/25 04:55:54;;;;;;;16.98;9.15;;;;;;;;;;4937649;28;20502;-90
2022/04/25 04:58:19;;;;;;;21.70;11.20;;;;;;;;;;4954653;28;20115;-89
2022/04/25 05:00:46;;;;;;;22.60;10.25;;;;;;;;;;4954539;29;20058;-89
2022/04/25 05:03:13;;;;;;;17.02;10.18;;;;;;;;;;4946088;29;20086;-91
2022/04/25 05:05:39;;;;;;;22.17;9.77;;;;;;;;;;4950022;28;20026;-90
2022/04/25 05:08:05;;;;;;;20.58;10.13;;;;;;;;;;4955609;28;20034;-89
2022/04/25 05:10:30;;;;;;;13.90;9.38;;;;;;;;;;4937609;29;20027;-89
2022/04/25 05:12:55;;;;;;;17.00;10.57;;;;;;;;;;4937355;29;20106;-89
2022/04/25 05:15:21;;;;;;;16.45;9.05;;;;;;;;;;4937524;29;20074;-89
2022/04/25 05:17:50;;;;;;;22.52;10.57;;;;;;;;;;4958716;28;20027;-90
2022/04/25 05:20:16;;;;;;;19.20;10.43;;;;;;;;;;4951427;28;20023;-91
2022/04/25 05:22:44;;;;;;;19.65;9.55;;;;;;;;;;4945933;29;20019;-90
2022/04/25 05:25:09;;;;;;;17.87;9.93;;;;;;;;;;4956409;29;20038;-90
2022/04/25 05:27:35;;;;;;;16.05;9.52;;;;;;;;;;4955618;28;20015;-91
2022/04/25 05:30:00;;;;;;;16.45;9.98;;;;;;;;;;4958164;29;20094;-91
2022/04/25 05:32:25;;;;;;;18.17;10.38;;;;;;;;;;4954962;28;20043;-91
2022/04/25 05:34:51;;;;;;;16.33;9.68;;;;;;;;;;4955405;29;20030;-91
2022/04/25 05:37:16;;;;;;;18.27;9.77;;;;;;;;;;4955331;28;20471;-91
2022/04/25 05:39:41;;;;;;;24.77;10.60;;;;;;;;;;4955213;28;20034;-91
2022/04/25 05:42:07;;;;;;;17.25;10.70;;;;;;;;;;4955900;29;20027;-91
2022/04/25 05:44:33;;;;;;;28.42;14.20;;;;;;;;;;4938155;29;20035;-91
2022/04/25 05:46:58;;;;;;;24.80;12.48;;;;;;;;;;4950897;29;20043;-91
2022/04/25 05:52:08;;;;;;;19.27;10.63;;;;;;;;;;4973120;28;20450;-90
2022/04/25 05:54:34;;;;;;;23.55;9.48;;;;;;;;;;4956208;29;20019;-91
2022/04/25 05:57:00;;;;;;;18.60;10.18;;;;;;;;;;4971010;28;20027;-91
2022/04/25 05:59:25;;;;;;;19.83;10.35;;;;;;;;;;4950908;29;20070;-91
2022/04/25 06:01:53;;;;;;;20.73;10.45;;;;;;;;;;4971323;28;20019;-89
2022/04/25 06:04:18;;;;;;;19.17;10.37;;;;;;;;;;4971380;29;20015;-89
2022/04/25 06:06:43;;;;;;;21.58;9.90;;;;;;;;;;4943817;29;20032;-92
2022/04/25 06:09:09;;;;;;;16.15;10.15;;;;;;;;;;4938805;29;20502;-92
2022/04/25 06:11:34;;;;;;;16.92;9.85;;;;;;;;;;4939970;29;20019;-89
2022/04/25 06:14:01;;;;;;;16.08;10.00;;;;;;;;;;4957993;28;20522;-90
2022/04/25 06:16:26;;;;;;;18.55;10.55;;;;;;;;;;4958609;28;20031;-91
2022/04/25 06:18:51;;;;;;;21.45;10.68;;;;;;;;;;4958412;28;20561;-90
2022/04/25 06:21:16;;;;;;;17.83;10.30;;;;;;;;;;4958073;29;20467;-90
2022/04/25 06:23:41;;;;;;;20.83;10.57;;;;;;;;;;4938381;29;20062;-90
2022/04/25 06:26:07;;;;;;;18.15;9.35;;;;;;;;;;4938756;28;20032;-90
2022/04/25 06:28:32;;;;;;;14.70;9.15;;;;;;;;;;4937808;29;20032;-91
2022/04/25 06:30:58;;;;;;;20.60;10.65;;;;;;;;;;4938776;29;20368;-91
2022/04/25 06:33:24;;;;;;;16.55;9.20;;;;;;;;;;4943617;29;20475;-89
2022/04/25 06:35:49;;;;;;;17.23;10.63;;;;;;;;;;4959540;28;20031;-90
2022/04/25 06:38:15;;;;;;;17.90;10.23;;;;;;;;;;4942627;29;20091;-90
2022/04/25 06:40:41;;;;;;;17.67;10.00;;;;;;;;;;4942024;29;20094;-90
2022/04/25 06:43:09;;;;;;;19.92;9.57;;;;;;;;;;4945439;29;20020;-91
2022/04/25 06:45:34;;;;;;;16.25;9.93;;;;;;;;;;4946045;28;20046;-90
2022/04/25 06:47:59;;;;;;;18.95;9.75;;;;;;;;;;4943976;29;20024;-93
2022/04/25 06:50:25;;;;;;;23.13;9.85;;;;;;;;;;4937182;29;20023;-92
2022/04/25 06:52:50;;;;;;;19.10;9.75;;;;;;;;;;4934294;29;20019;-92
2022/04/25 06:55:15;;;;;;;18.20;10.77;;;;;;;;;;4936730;29;20039;-91
2022/04/25 06:57:40;;;;;;;19.83;9.45;;;;;;;;;;4937660;29;20308;-92
2022/04/25 07:00:11;;;;;;;19.85;9.52;;;;;;;;;;4958088;29;20023;-91
2022/04/25 07:02:36;;;;;;;15.88;10.55;;;;;;;;;;4957424;29;20019;-92
2022/04/25 07:05:04;;;;;;;19.15;10.00;;;;;;;;;;4943708;29;20078;-91
2022/04/25 07:07:30;;;;;;;18.38;9.45;;;;;;;;;;4959197;28;20019;-93
2022/04/25 07:09:55;;;;;;;17.75;9.98;;;;;;;;;;4942614;29;20022;-92
2022/04/25 07:12:20;;;;;;;16.55;9.27;;;;;;;;;;4943014;29;20081;-92
2022/04/25 07:14:46;;;;;;;17.50;9.35;;;;;;;;;;4939520;29;20050;-92
2022/04/25 07:17:12;;;;;;;18.20;10.68;;;;;;;;;;4942171;29;20462;-92
2022/04/25 07:19:39;;;;;;;17.60;9.32;;;;;;;;;;4942677;29;20390;-93
2022/04/25 07:30:17;;;;;;;15.27;9.38;;;;;;;;;;4957665;28;20086;-90
2022/04/25 07:32:42;;;;;;;17.50;10.50;;;;;;;;;;4939037;29;20035;-90
2022/04/25 07:35:07;;;;;;;16.50;9.15;;;;;;;;;;4948064;29;20082;-91
2022/04/25 07:37:33;;;;;;;18.90;9.73;;;;;;;;;;4956031;28;20363;-89
2022/04/25 07:39:59;;;;;;;18.60;10.05;;;;;;;;;;4939097;29;20684;-89
2022/04/25 07:42:24;;;;;;;16.65;9.40;;;;;;;;;;4939455;29;20024;-91
2022/04/25 07:44:49;;;;;;;22.52;10.02;;;;;;;;;;4956468;29;20023;-89
2022/04/25 07:47:14;;;;;;;16.65;9.38;;;;;;;;;;4956461;28;20463;-91
2022/04/25 07:49:40;;;;;;;17.33;9.50;;;;;;;;;;4938200;29;20383;-90
2022/04/25 07:52:06;;;;;;;16.23;9.73;;;;;;;;;;4941828;29;20050;-89
2022/04/25 07:54:31;;;;;;;15.55;9.98;;;;;;;;;;4946231;29;20463;-91
2022/04/25 07:56:56;;;;;;;15.45;9.25;;;;;;;;;;4940050;29;20050;-90
2022/04/25 07:59:21;;;;;;;16.30;9.38;;;;;;;;;;4940848;29;20494;-93
2022/04/25 08:01:47;;;;;;;16.92;10.02;;;;;;;;;;4940856;29;20027;-92
2022/04/25 08:04:12;;;;;;;17.88;9.70;;;;;;;;;;4940935;29;20096;-92
2022/04/25 08:06:38;;;;;;;18.45;9.48;;;;;;;;;;4947731;28;20035;-92
2022/04/25 08:09:04;;;;;;;20.30;10.15;;;;;;;;;;4941724;29;20071;-91
2022/04/25 08:11:29;;;;;;;17.63;9.05;;;;;;;;;;4940914;29;20490;-92
2022/04/25 08:19:22;;;;;;;33.20;11.85;;;;;;;;;;4942159;29;20023;-92
2022/04/25 08:21:47;;;;;;;16.63;8.80;;;;;;;;;;4939958;29;20054;-91
2022/04/25 08:24:13;;;;;;;17.65;9.25;;;;;;;;;;4955429;28;20027;-90
2022/04/25 08:26:38;;;;;;;16.75;9.18;;;;;;;;;;4955435;28;20027;-89
2022/04/25 08:29:04;;;;;;;24.33;12.85;;;;;;;;;;4956410;29;20027;-89
2022/04/25 08:31:30;;;;;;;17.90;9.73;;;;;;;;;;4940088;29;20112;-91
2022/04/25 08:33:59;;;;;;;21.13;10.77;;;;;;;;;;4941675;28;20019;-90
2022/04/25 08:36:24;;;;;;;20.08;10.30;;;;;;;;;;4958541;28;20027;-90
2022/04/25 08:38:50;;;;;;;16.08;8.73;;;;;;;;;;4944639;29;20418;-91
2022/04/25 08:41:16;;;;;;;17.50;8.65;;;;;;;;;;4956278;29;20058;-91
2022/04/25 08:43:42;;;;;;;14.93;9.07;;;;;;;;;;4943766;29;20015;-91
2022/04/25 08:46:08;;;;;;;20.73;9.82;;;;;;;;;;4944415;29;20477;-94
2022/04/25 08:48:34;;;;;;;17.75;9.35;;;;;;;;;;4937539;29;20050;-91
2022/04/25 08:51:00;;;;;;;17.15;9.38;;;;;;;;;;4936489;29;20483;-93
2022/04/25 08:53:26;;;;;;;15.85;8.52;;;;;;;;;;4939890;29;20026;-90
2022/04/25 08:55:53;;;;;;;19.10;8.93;;;;;;;;;;4941307;28;20020;-92
2022/04/25 08:58:19;;;;;;;13.30;8.45;;;;;;;;;;4962717;23;20051;-84
2022/04/25 09:00:44;;;;;;;17.98;8.98;;;;;;;;;;4925916;29;20111;-83
2022/04/25 09:03:10;;;;;;;19.08;9.43;;;;;;;;;;4930847;29;20054;-83
2022/04/25 09:05:36;;;;;;;13.10;8.73;;;;;;;;;;4942528;29;20038;-83
2022/04/25 09:08:01;;;;;;;16.05;9.70;;;;;;;;;;4947306;29;20471;-81
2022/04/25 09:10:27;;;;;;;17.80;9.43;;;;;;;;;;4931861;29;20471;-83
2022/04/25 09:12:53;;;;;;;14.82;8.05;;;;;;;;;;4932700;29;20052;-84
2022/04/25 09:15:19;;;;;;;15.20;8.40;;;;;;;;;;4936123;29;20027;-82
2022/04/25 09:17:45;;;;;;;16.20;9.07;;;;;;;;;;4932475;29;20443;-82
2022/04/25 09:20:10;;;;;;;13.20;8.43;;;;;;;;;;4948209;29;20063;-82
2022/04/25 09:22:37;;;;;;;17.20;9.00;;;;;;;;;;4940712;29;20023;-82
2022/04/25 09:25:05;;;;;;;15.82;8.40;;;;;;;;;;4935731;29;20023;-82
2022/04/25 09:27:31;;;;;;;14.13;8.65;;;;;;;;;;4936301;29;20448;-83
2022/04/25 09:30:10;;;;;;;17.50;9.55;;;;;;;;;;4919453;29;20033;-83
2022/04/25 09:32:36;;;;;;;18.50;9.18;;;;;;;;;;4938157;29;20107;-84
2022/04/25 09:35:21;;;;;;;19.80;9.38;;;;;;;;;;4928901;29;20507;-83
2022/04/25 09:37:47;;;;;;;14.48;8.27;;;;;;;;;;4945633;29;20098;-84
2022/04/25 09:40:15;;;;;;;16.35;8.95;;;;;;;;;;4943746;29;20038;-82
2022/04/25 09:42:40;;;;;;;14.05;8.52;;;;;;;;;;4937582;29;20031;-83
2022/04/25 09:45:06;;;;;;;15.77;8.52;;;;;;;;;;4940046;29;20035;-84
2022/04/25 09:47:32;;;;;;;14.40;7.97;;;;;;;;;;4934062;29;20135;-84
2022/04/25 09:50:01;;;;;;;18.75;9.45;;;;;;;;;;4934690;29;20039;-84
2022/04/25 09:52:26;;;;;;;16.52;8.60;;;;;;;;;;4934765;29;20016;-84
2022/04/25 09:54:52;;;;;;;16.08;8.52;;;;;;;;;;4916813;29;20032;-84
2022/04/25 09:57:32;;;;;;;17.40;9.82;;;;;;;;;;4934138;29;20016;-84
2022/04/25 09:59:58;;;;;;;13.13;8.05;;;;;;;;;;4934213;29;20026;-84
2022/04/25 10:02:23;;;;;;;16.17;8.27;;;;;;;;;;4933077;29;20118;-76
2022/04/25 10:04:48;;;;;;;23.33;9.48;;;;;;;;;;4932939;29;20045;-77
2022/04/25 10:07:14;;;;;;;16.25;8.45;;;;;;;;;;4917519;29;20079;-77
2022/04/25 10:09:40;;;;;;;11.45;8.05;;;;;;;;;;4933400;29;20017;-78
2022/04/25 10:12:06;;;;;;;13.98;8.00;;;;;;;;;;4933467;29;20023;-78
2022/04/25 10:14:31;;;;;;;17.17;7.97;;;;;;;;;;4933332;29;20094;-78
2022/04/25 10:16:57;;;;;;;15.02;7.75;;;;;;;;;;4933753;29;20465;-75
2022/04/25 10:19:26;;;;;;;12.18;7.45;;;;;;;;;;4932432;29;20125;-76
2022/04/25 10:21:52;;;;;;;14.63;7.13;;;;;;;;;;4932406;29;20098;-77
2022/04/25 10:24:20;;;;;;;13.18;7.85;;;;;;;;;;4933136;29;20023;-77
2022/04/25 10:26:49;;;;;;;17.70;8.33;;;;;;;;;;4933154;29;20098;-76
2022/04/25 10:29:21;;;;;;;17.77;8.65;;;;;;;;;;4933511;29;20102;-77
2022/04/25 10:31:47;;;;;;;14.73;8.70;;;;;;;;;;4935136;29;20024;-77
2022/04/25 10:34:14;;;;;;;16.38;8.73;;;;;;;;;;4926501;29;20523;-79
2022/04/25 10:36:39;;;;;;;14.30;8.13;;;;;;;;;;4919411;29;20048;-76
2022/04/25 10:39:20;;;;;;;19.42;9.10;;;;;;;;;;4936848;29;20020;-77
2022/04/25 10:44:42;;;;;;;14.77;8.30;;;;;;;;;;4936657;29;20082;-77
2022/04/25 10:47:17;;;;;;;14.57;8.20;;;;;;;;;;4936801;29;20020;-77
2022/04/25 10:49:58;;;;;;;12.30;7.75;;;;;;;;;;4936688;29;20088;-77
2022/04/25 10:52:41;;;;;;;12.52;7.28;;;;;;;;;;4936148;29;20024;-76
2022/04/25 10:55:20;;;;;;;16.35;7.57;;;;;;;;;;4936432;29;20527;-77
2022/04/25 10:58:04;;;;;;;16.25;8.00;;;;;;;;;;4907063;29;20398;-75
2022/04/25 11:00:36;;;;;;;16.77;8.23;;;;;;;;;;4936580;29;20472;-78
2022/04/25 11:03:05;;;;;;;15.88;8.65;;;;;;;;;;4936176;29;20078;-75
2022/04/25 11:05:30;;;;;;;18.67;8.95;;;;;;;;;;4936024;29;20416;-77
2022/04/25 11:08:19;;;;;;;13.07;7.45;;;;;;;;;;4935256;29;20027;-76
2022/04/25 11:10:45;;;;;;;17.13;8.52;;;;;;;;;;4924033;29;20867;-77
2022/04/25 11:13:12;;;;;;;15.30;7.50;;;;;;;;;;4936017;29;20043;-77
2022/04/25 11:15:40;;;;;;;10.95;7.35;;;;;;;;;;4936167;29;20023;-77
2022/04/25 11:18:21;;;;;;;15.88;7.53;;;;;;;;;;4918818;29;20498;-76
2022/04/25 11:20:57;;;;;;;13.75;7.28;;;;;;;;;;4936410;29;20111;-77
2022/04/25 11:23:23;;;;;;;16.30;8.15;;;;;;;;;;4920399;29;20028;-76
2022/04/25 11:25:48;;;;;;;15.80;7.43;;;;;;;;;;4934626;29;20030;-77
2022/04/25 11:28:14;;;;;;;12.27;7.15;;;;;;;;;;4935831;29;20356;-77
2022/04/25 11:30:39;;;;;;;16.17;9.02;;;;;;;;;;4936238;29;20034;-75
2022/04/25 11:33:12;;;;;;;19.65;7.40;;;;;;;;;;4935626;29;20407;-77
2022/04/25 11:35:39;;;;;;;14.35;7.30;;;;;;;;;;4936111;29;20015;-77
2022/04/25 11:38:04;;;;;;;11.50;6.95;;;;;;;;;;4924710;29;20110;-76
2022/04/25 11:40:29;;;;;;;9.93;6.35;;;;;;;;;;4934709;29;20573;-78
2022/04/25 11:43:05;;;;;;;12.52;7.25;;;;;;;;;;4934587;29;20030;-77
2022/04/25 11:45:30;;;;;;;14.18;7.55;;;;;;;;;;4919133;29;20158;-77
2022/04/25 11:47:56;;;;;;;12.27;7.43;;;;;;;;;;4935632;29;20041;-76
2022/04/25 11:50:21;;;;;;;14.00;7.82;;;;;;;;;;4935656;29;20078;-77
2022/04/25 11:52:54;;;;;;;11.10;6.68;;;;;;;;;;4935299;29;20042;-76
2022/04/25 11:55:30;;;;;;;11.77;6.22;;;;;;;;;;4903184;29;20054;-77
2022/04/25 11:57:55;;;;;;;14.75;7.60;;;;;;;;;;4933775;29;20038;-77
2022/04/25 12:00:21;;;;;;;10.98;6.70;;;;;;;;;;4935051;29;20095;-76
2022/04/25 12:02:47;;;;;;;11.70;7.25;;;;;;;;;;4935780;29;20024;-76
2022/04/25 12:05:12;;;;;;;12.23;6.97;;;;;;;;;;4935432;29;20031;-76
2022/04/25 12:15:34;;;;;;;14.18;6.50;;;;;;;;;;4918277;29;20031;-75
2022/04/25 12:15:53;;;;;;;11.18;5.97;;;;;;;;;;4934077;29;20026;-75
2022/04/25 12:18:20;;;;;;;12.65;6.53;;;;;;;;;;4935153;29;20539;-77
2022/04/25 12:20:47;;;;;;;12.80;6.10;;;;;;;;;;4935055;29;20503;-76
2022/04/25 12:23:23;;;;;;;10.75;5.93;;;;;;;;;;4935072;29;20027;-75
2022/04/25 12:25:50;;;;;;;7.57;5.05;;;;;;;;;;4935144;29;20047;-77
2022/04/25 12:28:17;;;;;;;10.93;6.13;;;;;;;;;;4934496;29;20035;-75
2022/04/25 12:30:49;;;;;;;12.52;7.13;;;;;;;;;;4916772;29;20043;-77
2022/04/25 12:33:16;;;;;;;12.07;6.32;;;;;;;;;;4934128;29;20027;-78
2022/04/25 12:35:42;;;;;;;10.75;6.03;;;;;;;;;;4917795;29;20423;-77
2022/04/25 12:38:08;;;;;;;10.85;6.13;;;;;;;;;;4934517;29;20044;-77
2022/04/25 12:40:53;;;;;;;11.55;6.00;;;;;;;;;;4934985;29;20047;-76
2022/04/25 12:43:54;;;;;;;10.65;6.05;;;;;;;;;;4934600;29;20024;-76
2022/04/25 12:46:34;;;;;;;7.13;4.75;;;;;;;;;;4874340;29;20025;-77
2022/04/25 12:49:00;;;;;;;8.68;5.47;;;;;;;;;;4927991;29;20511;-77
2022/04/25 12:51:31;;;;;;;8.30;5.10;;;;;;;;;;4919009;29;20156;-76
2022/04/25 12:53:56;;;;;;;10.43;6.30;;;;;;;;;;4934223;29;20452;-78
2022/04/25 12:56:23;;;;;;;11.95;5.97;;;;;;;;;;4924987;29;20110;-77
2022/04/25 12:58:48;;;;;;;11.73;5.70;;;;;;;;;;4934517;29;20031;-77
2022/04/25 13:01:25;;;;;;;9.23;6.05;;;;;;;;;;4917401;29;20460;-77
2022/04/25 13:04:11;;;;;;;9.73;6.25;;;;;;;;;;4917020;29;20123;-78
2022/04/25 13:06:37;;;;;;;10.30;5.60;;;;;;;;;;4934133;29;20027;-76
2022/04/25 13:09:02;;;;;;;12.82;6.05;;;;;;;;;;4917016;29;20015;-77
2022/04/25 13:11:28;;;;;;;12.45;6.75;;;;;;;;;;4934224;29;20027;-78
2022/04/25 13:13:53;;;;;;;12.82;6.47;;;;;;;;;;4932494;29;20502;-76
2022/04/25 13:16:19;;;;;;;11.13;5.72;;;;;;;;;;4917373;29;20050;-77
2022/04/25 13:18:44;;;;;;;11.97;5.83;;;;;;;;;;4933633;29;20059;-78
2022/04/25 13:21:12;;;;;;;7.67;6.00;;;;;;;;;;4933532;29;20439;-78
2022/04/25 13:23:37;;;;;;;11.13;6.70;;;;;;;;;;4916671;29;20257;-77
2022/04/25 13:26:02;;;;;;;9.67;6.27;;;;;;;;;;4933859;29;20035;-77
2022/04/25 13:28:28;;;;;;;9.35;5.75;;;;;;;;;;4934002;29;20277;-77
2022/04/25 13:30:54;;;;;;;9.52;5.30;;;;;;;;;;4933951;29;20029;-77
2022/04/25 13:33:19;;;;;;;9.18;5.57;;;;;;;;;;4932287;29;20392;-77
2022/04/25 13:35:45;;;;;;;8.18;5.05;;;;;;;;;;4916755;29;20031;-76
2022/04/25 13:38:10;;;;;;;9.60;5.22;;;;;;;;;;4916059;29;20083;-78
2022/04/25 13:40:35;;;;;;;10.93;5.47;;;;;;;;;;4933465;29;20027;-78
2022/04/25 13:43:01;;;;;;;12.85;5.63;;;;;;;;;;4933366;29;20046;-75
2022/04/25 13:45:27;;;;;;;13.63;6.20;;;;;;;;;;4916245;29;20352;-78
2022/04/25 13:47:52;;;;;;;10.53;5.57;;;;;;;;;;4933291;29;20016;-77
2022/04/25 13:50:17;;;;;;;10.57;5.03;;;;;;;;;;4933781;29;20259;-77
2022/04/25 13:52:43;;;;;;;10.40;5.70;;;;;;;;;;4933132;29;20447;-78
2022/04/25 13:55:08;;;;;;;11.07;5.97;;;;;;;;;;4915325;29;20414;-77
2022/04/25 13:57:34;;;;;;;10.90;6.13;;;;;;;;;;4933003;29;20031;-77
2022/04/25 13:59:59;;;;;;;7.75;5.10;;;;;;;;;;4933749;29;20083;-76
2022/04/25 14:05:07;;;;;;;10.68;4.30;;;;;;;;;;4933640;29;20293;-77
2022/04/25 14:07:37;;;;;;;8.20;4.63;;;;;;;;;;4937247;29;20391;-76
2022/04/25 14:10:02;;;;;;;7.70;4.90;;;;;;;;;;4937499;29;20350;-77
2022/04/25 14:12:27;;;;;;;6.28;4.18;;;;;;;;;;4936171;29;20457;-76
2022/04/25 14:14:52;;;;;;;6.72;4.30;;;;;;;;;;4936943;29;20472;-77
2022/04/25 14:17:19;;;;;;;6.22;4.50;;;;;;;;;;4937463;29;20042;-77
2022/04/25 14:19:44;;;;;;;7.75;5.30;;;;;;;;;;4936547;29;20107;-77
2022/04/25 14:22:10;;;;;;;12.90;5.82;;;;;;;;;;4936932;29;20098;-76
2022/04/25 14:24:44;;;;;;;11.07;6.17;;;;;;;;;;4936940;29;20020;-75
2022/04/25 14:27:09;;;;;;;8.32;5.13;;;;;;;;;;4934568;29;20273;-76
2022/04/25 14:29:34;;;;;;;10.87;4.90;;;;;;;;;;4936266;29;20020;-75
2022/04/25 14:32:00;;;;;;;9.97;4.87;;;;;;;;;;4936861;29;20479;-76
2022/04/25 14:34:25;;;;;;;9.10;5.53;;;;;;;;;;4935271;29;20016;-77
2022/04/25 14:36:50;;;;;;;8.30;5.00;;;;;;;;;;4932329;29;20020;-77
2022/04/25 14:39:15;;;;;;;8.73;4.87;;;;;;;;;;4935846;29;20725;-77
2022/04/25 14:41:41;;;;;;;6.63;4.10;;;;;;;;;;4937051;29;20068;-76
2022/04/25 14:44:06;;;;;;;12.90;5.17;;;;;;;;;;4927225;29;20547;-76
2022/04/25 14:46:32;;;;;;;7.10;4.53;;;;;;;;;;4934496;29;20032;-77
2022/04/25 14:48:57;;;;;;;7.57;4.78;;;;;;;;;;4938464;29;20262;-77
2022/04/25 14:54:20;;;;;;;8.30;4.38;;;;;;;;;;4937995;29;20245;-75
2022/04/25 14:56:46;;;;;;;6.93;4.40;;;;;;;;;;4920630;29;20476;-77
2022/04/25 14:59:11;;;;;;;6.80;4.55;;;;;;;;;;4938461;29;20042;-76
2022/04/25 15:01:36;;;;;;;7.80;4.75;;;;;;;;;;4937442;29;20027;-78
2022/04/25 15:04:01;;;;;;;7.57;4.20;;;;;;;;;;4935430;29;20019;-77
2022/04/25 15:06:27;;;;;;;8.37;5.33;;;;;;;;;;4935646;29;20274;-77